• Join FlightAware (Why Join?)
  • Login
  • US Flag 
04:26PM EDT


 

Airport Tracker/Info


-or-


 

Live Flight TrackerFlight Track Log ✈ N121JM ✈ 22-Sep-2013 ✈ KTEB - KATL

Flight Track Log - Related Links

Times and Time Zones

All times are in EDT time to prevent confusion due to time zone crossing. See the N121JM flight status page for this flight to view local times or setup timezone preferences in your user account.

Time Position Orientation Groundspeed Altitude Reporting Facility
EDT Latitude Longitude Course Direction KTS MPH feet Rate Location/Type
05:51AM 40.8498 -74.0657 57° Northeast 142 163 300  Level FlightAware ADS-B
05:52AM 40.8392 -74.0806 227° Southwest 165 190 1,000 1,620 Climbing FlightAware ADS-B
05:52AM 40.8320 -74.0912 228° Southwest 154 177 1,300 1,140 Climbing FlightAware ADS-B
05:52AM 40.8295 -74.0956 233° Southwest 154 177 1,400 1,500 Climbing FlightAware ADS-B
05:52AM 40.8276 -74.0997 239° Southwest 154 177 1,600 1,320 Climbing FlightAware ADS-B
05:52AM 40.8265 -74.1026 243° Southwest 155 178 1,600 1,500 Level FlightAware ADS-B
05:53AM 40.8130 -74.1442 247° West 175 201 2,800 1,560 Climbing FlightAware ADS-B
05:53AM 40.8093 -74.1608 254° West 186 214 3,200 1,680 Climbing FlightAware ADS-B
05:53AM 40.8079 -74.1666 252° West 194 223 3,400 1,320 Climbing FlightAware ADS-B
05:53AM 40.8036 -74.1819 250° West 213 245 3,600 1,500 Climbing FlightAware ADS-B
05:54AM 40.7980 -74.2015 249° West 234 269 4,100 1,860 Climbing FlightAware ADS-B
05:54AM 40.7921 -74.2212 248° West 251 289 4,500 2,160 Climbing FlightAware ADS-B
05:54AM 40.7867 -74.2369 246° West 261 300 5,000 2,520 Climbing FlightAware ADS-B
05:54AM 40.7784 -74.2582 243° Southwest 268 308 5,600 3,000 Climbing FlightAware ADS-B
05:55AM 40.7655 -74.2883 241° Southwest 268 308 6,800 3,420 Climbing FlightAware ADS-B
05:55AM 40.7548 -74.3148 242° Southwest 263 303 7,900 3,600 Climbing FlightAware ADS-B
05:55AM 40.7455 -74.3365 241° Southwest 257 296 8,900 3,600 Climbing FlightAware ADS-B
05:55AM 40.7400 -74.3492 240° Southwest 255 293 9,400 2,760 Climbing FlightAware ADS-B
05:56AM 40.7220 -74.3930 242° Southwest 263 303 10,800 2,280 Climbing FlightAware
05:56AM 40.7179 -74.4026 241° Southwest 253 291 10,900 780 Climbing FlightAware ADS-B
05:57AM 40.6975 -74.4501 240° Southwest 302 348 11,300 1,140 Climbing FlightAware ADS-B
05:57AM 40.6750 -74.5040 241° Southwest 325 374 12,100 1,500 Climbing FlightAware
05:58AM 40.6490 -74.5660 241° Southwest 343 395 13,000 1,380 Climbing FlightAware
05:58AM 40.6220 -74.6270 240° Southwest 357 411 13,700 1,500 Climbing FlightAware
05:59AM 40.5930 -74.6980 242° Southwest 365 420 14,700 1,680 Climbing FlightAware
06:00AM 40.5630 -74.7690 241° Southwest 372 428 15,800 1,680 Climbing FlightAware
06:00AM 40.5360 -74.8330 241° Southwest 376 433 16,700 1,680 Climbing FlightAware
06:01AM 40.5060 -74.9030 241° Southwest 380 437 17,700 1,560 Climbing FlightAware
06:01AM 40.4690 -74.9730 235° Southwest 390 449 18,600 1,500 Climbing FlightAware
06:02AM 40.4300 -75.0370 231° Southwest 396 456 19,500 1,500 Climbing FlightAware
06:02AM 40.3920 -75.1010 232° Southwest 404 465 20,300 1,500 Climbing FlightAware
06:03AM 40.3510 -75.1680 231° Southwest 411 473 21,200 1,500 Climbing FlightAware
06:04AM 40.3080 -75.2390 232° Southwest 417 480 22,100 1,500 Climbing FlightAware
06:04AM 40.2650 -75.3100 232° Southwest 422 486 23,000 1,440 Climbing FlightAware
06:05AM 40.2250 -75.3750 231° Southwest 425 489 23,800 1,440 Climbing FlightAware
06:05AM 40.1830 -75.4430 231° Southwest 429 494 24,600 1,500 Climbing FlightAware
06:06AM 40.1330 -75.5240 231° Southwest 433 498 25,600 1,500 Climbing FlightAware
06:06AM 40.0920 -75.5900 231° Southwest 436 502 26,400 1,440 Climbing FlightAware
06:07AM 40.0470 -75.6630 231° Southwest 437 503 27,300 1,500 Climbing FlightAware
06:08AM 39.9980 -75.7420 231° Southwest 437 503 28,300 1,560 Climbing FlightAware
06:08AM 39.9570 -75.8070 231° Southwest 436 502 29,100 1,380 Climbing FlightAware
06:09AM 39.9130 -75.8780 231° Southwest 435 501 29,900 1,500 Climbing FlightAware
06:09AM 39.8670 -75.9530 231° Southwest 435 501 30,900 1,500 Climbing FlightAware
06:10AM 39.8240 -76.0200 230° Southwest 432 497 31,700 1,380 Climbing FlightAware
06:11AM 39.7800 -76.0900 231° Southwest 429 494 32,500 1,440 Climbing FlightAware
06:11AM 39.7340 -76.1620 230° Southwest 427 491 33,400 1,500 Climbing FlightAware
06:12AM 39.6920 -76.2290 231° Southwest 423 487 34,300 1,500 Climbing FlightAware
06:12AM 39.6480 -76.2990 231° Southwest 418 481 35,200 1,440 Climbing FlightAware
06:13AM 39.6030 -76.3690 230° Southwest 410 472 36,000 1,320 Climbing FlightAware
06:13AM 39.5670 -76.4270 231° Southwest 404 465 36,800 1,440 Climbing FlightAware
06:14AM 39.5210 -76.4980 230° Southwest 396 456 37,700 1,380 Climbing FlightAware
06:15AM 39.4850 -76.5550 231° Southwest 392 451 38,400 1,020 Climbing FlightAware
06:15AM 39.4460 -76.6160 230° Southwest 392 451 38,900 900 Climbing FlightAware
06:16AM 39.4030 -76.6840 231° Southwest 392 451 39,500 780 Climbing FlightAware
06:16AM 39.3600 -76.7490 229° Southwest 391 450 39,900 360 Climbing FlightAware
06:17AM 39.3180 -76.8140 230° Southwest 398 458 40,000 60 Climbing FlightAware
06:18AM 39.2800 -76.8740 231° Southwest 408 470 40,000  Level FlightAware
06:18AM 39.2390 -76.9380 230° Southwest 414 476 40,000  Level FlightAware
06:19AM 39.1930 -77.0100 231° Southwest 421 484 40,000  Level FlightAware
06:19AM 39.1480 -77.0790 230° Southwest 425 489 40,000  Level FlightAware
06:20AM 39.1060 -77.1420 229° Southwest 429 494 40,000  Level FlightAware
06:20AM 39.0610 -77.2130 231° Southwest 431 496 40,000  Level FlightAware
06:21AM 39.0120 -77.2880 230° Southwest 432 497 40,000  Level FlightAware
06:22AM 38.9700 -77.3510 229° Southwest 434 499 40,000  Level FlightAware
06:22AM 38.9270 -77.4170 230° Southwest 435 501 40,000  Level FlightAware
06:23AM 38.8780 -77.4920 230° Southwest 435 501 40,000  Level FlightAware
06:23AM 38.8310 -77.5630 230° Southwest 436 502 40,000  Level FlightAware
06:24AM 38.7900 -77.6250 230° Southwest 435 501 40,000  Level FlightAware
06:25AM 38.7420 -77.6970 229° Southwest 436 502 40,000  Level FlightAware
06:25AM 38.7010 -77.7600 230° Southwest 435 501 40,000  Level FlightAware
06:26AM 38.6480 -77.8390 229° Southwest 435 501 40,000  Level FlightAware
06:26AM 38.6080 -77.9000 230° Southwest 435 501 40,000  Level FlightAware
06:27AM 38.5600 -77.9720 230° Southwest 435 501 40,000  Level FlightAware
06:28AM 38.5130 -78.0420 229° Southwest 438 504 40,000  Level FlightAware
06:28AM 38.4650 -78.1140 230° Southwest 440 506 40,000  Level FlightAware
06:29AM 38.4230 -78.1760 229° Southwest 443 510 40,000  Level FlightAware
06:29AM 38.3750 -78.2480 230° Southwest 442 509 40,000  Level FlightAware
06:30AM 38.3270 -78.3190 229° Southwest 443 510 40,000  Level FlightAware
06:30AM 38.2840 -78.3810 229° Southwest 441 507 40,000  Level FlightAware
06:31AM 38.2350 -78.4540 229° Southwest 441 507 40,000  Level FlightAware
06:32AM 38.1880 -78.5240 230° Southwest 441 507 40,000  Level FlightAware
06:32AM 38.1430 -78.5900 229° Southwest 442 509 40,000  Level FlightAware
06:33AM 38.0950 -78.6610 229° Southwest 442 509 40,000  Level FlightAware
06:33AM 38.0470 -78.7310 229° Southwest 443 510 40,000  Level FlightAware
06:34AM 37.9980 -78.8020 229° Southwest 442 509 40,000  Level FlightAware
06:34AM 37.9550 -78.8650 229° Southwest 442 509 40,000  Level FlightAware
06:35AM 37.9080 -78.9340 229° Southwest 443 510 40,000  Level FlightAware
06:36AM 37.8590 -79.0040 228° Southwest 445 512 40,000  Level FlightAware
06:36AM 37.8150 -79.0670 229° Southwest 445 512 40,000  Level FlightAware
06:37AM 37.7650 -79.1400 229° Southwest 447 514 40,000  Level FlightAware
06:37AM 37.7160 -79.2100 229° Southwest 440 506 40,000  Level FlightAware
06:38AM 37.6690 -79.2780 229° Southwest 433 498 40,000  Level FlightAware
06:39AM 37.6280 -79.3380 229° Southwest 428 493 40,000  Level FlightAware
06:39AM 37.5820 -79.4030 228° Southwest 424 488 40,000  Level FlightAware
06:40AM 37.5310 -79.4750 228° Southwest 421 484 40,000  Level FlightAware
06:40AM 37.4910 -79.5310 228° Southwest 421 484 40,000  Level FlightAware
06:41AM 37.4490 -79.5900 228° Southwest 421 484 40,000  Level FlightAware
06:42AM 37.4090 -79.6460 228° Southwest 421 484 40,000  Level FlightAware
06:42AM 37.3690 -79.7010 228° Southwest 421 484 40,000  Level FlightAware
06:43AM 37.3290 -79.7570 228° Southwest 421 484 40,000  Level FlightAware
06:43AM 37.2900 -79.8130 229° Southwest 421 484 40,000  Level FlightAware
06:44AM 37.2500 -79.8690 228° Southwest 421 484 40,000  Level FlightAware
06:45AM 37.2100 -79.9240 228° Southwest 421 484 40,000  Level FlightAware
06:45AM 37.1700 -79.9800 228° Southwest 421 484 40,000  Level FlightAware
06:46AM 37.1300 -80.0350 228° Southwest 421 484 40,000  Level FlightAware
06:46AM 37.0900 -80.0910 228° Southwest 421 484 40,000  Level FlightAware
06:47AM 37.0500 -80.1460 228° Southwest 421 484 40,000  Level FlightAware
06:48AM 37.0100 -80.2020 228° Southwest 421 484 40,000  Level FlightAware
06:48AM 36.9700 -80.2570 228° Southwest 421 484 40,000  Level FlightAware
06:49AM 36.9290 -80.3140 228° Southwest 421 484 40,000  Level FlightAware
06:54AM 36.4123 -81.0381 229° Southwest 438 504 40,000  Level FlightAware ADS-B
06:55AM 36.3490 -81.1247 228° Southwest 440 506 40,000  Level FlightAware ADS-B
06:59AM 36.0432 -81.5408 228° Southwest 442 509 40,000  Level FlightAware ADS-B
07:00AM 35.9986 -81.6009 227° Southwest 444 511 40,000  Level FlightAware ADS-B
07:00AM 35.9568 -81.6571 227° Southwest 444 511 40,000  Level FlightAware ADS-B
07:01AM 35.9152 -81.7129 227° Southwest 444 511 40,000  Level FlightAware ADS-B
07:01AM 35.8713 -81.7721 228° Southwest 443 510 40,000 -120 Level FlightAware ADS-B
07:02AM 35.8280 -81.8300 227° Southwest 445 512 39,900 -360 Descending FlightAware
07:02AM 35.8002 -81.8672 227° Southwest 444 511 39,700 -600 Descending FlightAware ADS-B
07:03AM 35.7263 -81.9664 227° Southwest 452 520 39,200 -720 Descending FlightAware ADS-B
07:03AM 35.6817 -82.0258 227° Southwest 457 526 38,700 -900 Descending FlightAware ADS-B
07:04AM 35.6380 -82.0838 227° Southwest 459 528 38,300 -840 Descending FlightAware ADS-B
07:04AM 35.5940 -82.1422 227° Southwest 454 522 37,900 -780 Descending FlightAware ADS-B
07:05AM 35.5503 -82.2002 227° Southwest 456 525 37,500 -900 Descending FlightAware ADS-B
07:05AM 35.5072 -82.2574 227° Southwest 461 531 37,000 -1,020 Descending FlightAware ADS-B
07:06AM 35.4610 -82.3183 227° Southwest 461 531 36,500 -1,020 Descending FlightAware ADS-B
07:06AM 35.4170 -82.3763 227° Southwest 459 528 36,000 -1,140 Descending FlightAware ADS-B
07:07AM 35.3733 -82.4343 227° Southwest 459 528 35,400 1,260 Descending FlightAware ADS-B
07:08AM 35.3500 -82.4640 226° Southwest 455 524 37,600 -1,020 Climbing FlightAware
07:08AM 35.2943 -82.5379 227° Southwest 466 536 34,500 -5,220 Descending FlightAware ADS-B
07:08AM 35.2474 -82.5992 227° Southwest 473 544 33,900 -1,440 Descending FlightAware ADS-B
07:09AM 35.1858 -82.6798 227° Southwest 487 560 32,800 -1,680 Descending FlightAware ADS-B
07:10AM 35.1367 -82.7438 227° Southwest 488 562 31,900 -1,800 Descending FlightAware ADS-B
07:10AM 35.0905 -82.8039 227° Southwest 483 556 31,000 -1,740 Descending FlightAware ADS-B
07:11AM 35.0440 -82.8644 227° Southwest 485 558 30,200 -1,740 Descending FlightAware ADS-B
07:11AM 34.9977 -82.9245 227° Southwest 490 564 29,300 -1,800 Descending FlightAware ADS-B
07:12AM 34.9499 -82.9866 227° Southwest 490 564 28,400 -1,800 Descending FlightAware ADS-B
07:12AM 34.9020 -83.0483 227° Southwest 492 566 27,500 -1,800 Descending FlightAware ADS-B
07:13AM 34.8492 -83.1164 227° Southwest 494 568 26,500 -1,980 Descending FlightAware ADS-B
07:13AM 34.7982 -83.1822 227° Southwest 478 550 25,300 -2,100 Descending FlightAware ADS-B
07:14AM 34.7487 -83.2460 227° Southwest 472 543 24,200 -1,980 Descending FlightAware ADS-B
07:14AM 34.6928 -83.3177 227° Southwest 465 535 23,000 -2,040 Descending FlightAware ADS-B
07:15AM 34.6463 -83.3774 227° Southwest 465 535 21,900 -2,040 Descending FlightAware ADS-B
07:15AM 34.6013 -83.4352 227° Southwest 460 529 20,900 -1,980 Descending FlightAware ADS-B
07:16AM 34.5540 -83.4950 226° Southwest 454 522 19,800 -2,100 Descending FlightAware
07:16AM 34.5030 -83.5602 227° Southwest 450 518 18,600 -2,040 Descending FlightAware ADS-B
07:17AM 34.4490 -83.6280 226° Southwest 444 511 17,400 -2,040 Descending FlightAware
07:18AM 34.4020 -83.6880 226° Southwest 438 504 16,200 -2,100 Descending FlightAware
07:18AM 34.3520 -83.7520 227° Southwest 428 493 15,000 -2,040 Descending FlightAware
07:19AM 34.3040 -83.8130 226° Southwest 414 476 13,800 -1,500 Descending FlightAware
07:19AM 34.2580 -83.8700 226° Southwest 379 436 13,200 -660 Descending FlightAware
07:20AM 34.2210 -83.9170 226° Southwest 341 392 13,100 -120 Descending FlightAware
07:21AM 34.1830 -83.9640 226° Southwest 319 367 13,100  Level FlightAware
07:21AM 34.1490 -83.9930 215° Southwest 322 371 13,100 -240 Level FlightAware
07:22AM 34.1110 -84.0120 202° Southwest 328 377 12,900 -1,140 Descending FlightAware
07:22AM 34.0570 -84.0270 193° South 330 380 11,900 -1,680 Descending FlightAware
07:23AM 34.0030 -84.0410 192° South 328 377 10,900 -1,620 Descending FlightAware
07:23AM 33.9550 -84.0530 192° South 321 369 10,100 -1,620 Descending FlightAware
07:24AM 33.9210 -84.0620 192° South 317 365 9,400 -1,680 Descending FlightAware
07:24AM 33.8920 -84.0690 191° South 313 360 8,900 -1,500 Descending FlightAware
07:24AM 33.8640 -84.0760 192° South 308 354 8,400 -1,380 Descending FlightAware
07:25AM 33.8360 -84.0830 192° South 297 342 8,000 -1,080 Descending FlightAware
07:25AM 33.8110 -84.0890 191° South 280 322 7,700 -720 Descending FlightAware
07:25AM 33.7840 -84.0940 189° South 261 300 7,500 -660 Descending FlightAware
07:26AM 33.7540 -84.0940 180° South 243 280 7,200 -1,140 Descending FlightAware
07:26AM 33.7330 -84.0930 178° South 244 281 6,700 -1,800 Descending FlightAware
07:26AM 33.7200 -84.0930 180° South 246 283 6,300 -1,380 Descending FlightAware
07:27AM 33.6930 -84.0920 178° South 236 272 5,900 -1,020 Descending FlightAware
07:27AM 33.6580 -84.0940 183° South 221 254 5,400 -900 Descending FlightAware
07:27AM 33.6500 -84.0970 197° South 213 245 5,300 -780 Descending FlightAware
07:28AM 33.6440 -84.1020 215° Southwest 206 237 5,200 -540 Descending FlightAware
07:28AM 33.6420 -84.1050 231° Southwest 203 234 5,200 -540 Level FlightAware
07:28AM 33.6390 -84.1120 243° Southwest 196 226 5,100 -420 Descending FlightAware
07:28AM 33.6380 -84.1180 259° West 194 223 5,100  Level FlightAware
07:28AM 33.6440 -84.1410 287° West 192 221 5,100  Level FlightAware
07:28AM 33.6490 -84.1580 289° West 191 220 5,100 -360 Level FlightAware
07:29AM 33.6510 -84.1790 277° West 197 227 4,900 -780 Descending FlightAware
07:29AM 33.6500 -84.2090 268° West 202 232 4,500 -900 Descending FlightAware
07:30AM 33.6500 -84.2320 270° West 201 231 4,200 -900 Descending FlightAware
07:30AM 33.6490 -84.2540 267° West 198 228 3,900 -1,140 Descending FlightAware
07:30AM 33.6500 -84.2860 272° West 208 239 3,300 -1,140 Descending FlightAware
07:31AM 33.6490 -84.3140 268° West 203 234 2,900 -1,020 Descending FlightAware
07:31AM 33.6490 -84.3340 270° West 192 221 2,600 -1,080 Descending FlightAware
07:31AM 33.6490 -84.3520 270° West 181 208 2,300 -1,200 Descending FlightAware
07:32AM 33.6490 -84.3710 270° West 172 198 1,900 -1,200 Descending FlightAware
07:32AM 33.6490 -84.3890 270° West 159 183 1,500 -1,080 Descending FlightAware
07:32AM 33.6500 -84.4060 274° West 149 171 1,200 -420 Descending FlightAware
07:33AM 33.6500 -84.4320 270° West 116 133 1,100 -180 Descending FlightAware